Mounds View, Minnesota
Current Conditions -  °F | °C
As of 7:45 AM on Monday 20 Oct 2014 (Local Time) from KANE Reporting Station
Clear Clear  
Wind Chill:   Ceiling: Unl
Heat Index:   Visibility: 10mi
Dew Point:   Wind: 6mph
Humidity: 93%   Direction: 300°WNW
Pressure: 29.96"   Gusts: NA
Location:  45.0755°N, 93.1911°W
Report Text: KANE 201245Z 30005KT 10SM SKC 07/06 A2996
Loading
Personal Weather Stations






























Interactive Weather Map
Tropical Storm Tracking
New forecast layout! Learn more

10-Day Weather Forecast

Advertisements
Track Severe Weather on mobile